sensor_id;sensor_type;location;lat;lon;timestamp;P1;durP1;ratioP1;P2;durP2;ratioP2
5847;SDS011;8756;49.29324300;8.70599800;2022-10-16T00:01:21;9.20;;;3.60;;
5847;SDS011;8756;49.29324300;8.70599800;2022-10-16T00:03:50;10.57;;;3.90;;
5847;SDS011;8756;49.29324300;8.70599800;2022-10-16T00:06:17;10.87;;;4.23;;
5847;SDS011;8756;49.29324300;8.70599800;2022-10-16T00:08:45;11.63;;;4.33;;
5847;SDS011;8756;49.29324300;8.70599800;2022-10-16T00:11:14;13.77;;;4.60;;
5847;SDS011;8756;49.29324300;8.70599800;2022-10-16T00:13:48;10.23;;;4.17;;
5847;SDS011;8756;49.29324300;8.70599800;2022-10-16T00:16:17;10.13;;;4.10;;
5847;SDS011;8756;49.29324300;8.70599800;2022-10-16T00:18:44;10.43;;;4.20;;
5847;SDS011;8756;49.29324300;8.70599800;2022-10-16T00:21:11;10.47;;;3.80;;
5847;SDS011;8756;49.29324300;8.70599800;2022-10-16T00:23:41;9.27;;;3.13;;
5847;SDS011;8756;49.29324300;8.70599800;2022-10-16T00:26:09;9.83;;;3.10;;
5847;SDS011;8756;49.29324300;8.70599800;2022-10-16T00:28:38;12.20;;;3.90;;
5847;SDS011;8756;49.29324300;8.70599800;2022-10-16T00:31:05;10.00;;;3.80;;
5847;SDS011;8756;49.29324300;8.70599800;2022-10-16T00:33:33;11.63;;;3.53;;
5847;SDS011;8756;49.29324300;8.70599800;2022-10-16T00:36:00;10.90;;;3.73;;
5847;SDS011;8756;49.29324300;8.70599800;2022-10-16T00:38:27;11.50;;;3.47;;
5847;SDS011;8756;49.29324300;8.70599800;2022-10-16T00:40:53;11.40;;;3.60;;
5847;SDS011;8756;49.29324300;8.70599800;2022-10-16T00:43:32;8.73;;;3.53;;
5847;SDS011;8756;49.29324300;8.70599800;2022-10-16T00:46:04;8.63;;;3.30;;
5847;SDS011;8756;49.29324300;8.70599800;2022-10-16T00:48:46;9.80;;;3.40;;
5847;SDS011;8756;49.29324300;8.70599800;2022-10-16T00:51:37;9.97;;;3.40;;
5847;SDS011;8756;49.29324300;8.70599800;2022-10-16T00:54:08;10.23;;;3.40;;
5847;SDS011;8756;49.29324300;8.70599800;2022-10-16T00:56:55;12.07;;;3.80;;
5847;SDS011;8756;49.29324300;8.70599800;2022-10-16T00:59:29;11.57;;;3.53;;
5847;SDS011;8756;49.29324300;8.70599800;2022-10-16T01:02:07;9.93;;;3.20;;
5847;SDS011;8756;49.29324300;8.70599800;2022-10-16T01:04:37;8.80;;;3.37;;
5847;SDS011;8756;49.29324300;8.70599800;2022-10-16T01:07:14;15.00;;;4.10;;
5847;SDS011;8756;49.29324300;8.70599800;2022-10-16T01:10:07;11.97;;;3.60;;
5847;SDS011;8756;49.29324300;8.70599800;2022-10-16T01:15:26;8.80;;;3.13;;
5847;SDS011;8756;49.29324300;8.70599800;2022-10-16T01:21:24;9.03;;;3.40;;
5847;SDS011;8756;49.29324300;8.70599800;2022-10-16T01:23:48;9.57;;;3.53;;
5847;SDS011;8756;49.29324300;8.70599800;2022-10-16T01:30:01;14.33;;;4.10;;
5847;SDS011;8756;49.29324300;8.70599800;2022-10-16T01:32:39;8.80;;;3.10;;
5847;SDS011;8756;49.29324300;8.70599800;2022-10-16T01:35:11;11.87;;;3.70;;
5847;SDS011;8756;49.29324300;8.70599800;2022-10-16T01:37:46;11.03;;;3.40;;
5847;SDS011;8756;49.29324300;8.70599800;2022-10-16T01:40:34;10.63;;;3.67;;
5847;SDS011;8756;49.29324300;8.70599800;2022-10-16T01:43:13;9.30;;;3.13;;
5847;SDS011;8756;49.29324300;8.70599800;2022-10-16T01:45:44;9.50;;;3.40;;
5847;SDS011;8756;49.29324300;8.70599800;2022-10-16T01:48:12;10.40;;;3.60;;
5847;SDS011;8756;49.29324300;8.70599800;2022-10-16T01:50:43;9.27;;;3.73;;
5847;SDS011;8756;49.29324300;8.70599800;2022-10-16T01:53:21;10.83;;;3.30;;
5847;SDS011;8756;49.29324300;8.70599800;2022-10-16T01:55:49;15.43;;;4.60;;
5847;SDS011;8756;49.29324300;8.70599800;2022-10-16T01:58:17;14.23;;;3.70;;
5847;SDS011;8756;49.29324300;8.70599800;2022-10-16T02:00:44;10.10;;;3.47;;
5847;SDS011;8756;49.29324300;8.70599800;2022-10-16T02:03:12;12.40;;;3.80;;
5847;SDS011;8756;49.29324300;8.70599800;2022-10-16T02:05:52;9.17;;;3.10;;
5847;SDS011;8756;49.29324300;8.70599800;2022-10-16T02:08:21;16.27;;;4.20;;
5847;SDS011;8756;49.29324300;8.70599800;2022-10-16T02:10:50;9.10;;;3.67;;
5847;SDS011;8756;49.29324300;8.70599800;2022-10-16T02:16:10;9.40;;;3.80;;
5847;SDS011;8756;49.29324300;8.70599800;2022-10-16T02:18:37;11.27;;;4.13;;
5847;SDS011;8756;49.29324300;8.70599800;2022-10-16T02:29:50;15.47;;;4.90;;
5847;SDS011;8756;49.29324300;8.70599800;2022-10-16T02:32:32;13.80;;;4.47;;
5847;SDS011;8756;49.29324300;8.70599800;2022-10-16T02:35:01;11.37;;;4.50;;
5847;SDS011;8756;49.29324300;8.70599800;2022-10-16T02:37:28;11.37;;;4.50;;
5847;SDS011;8756;49.29324300;8.70599800;2022-10-16T02:39:56;13.00;;;4.50;;
5847;SDS011;8756;49.29324300;8.70599800;2022-10-16T02:42:27;12.37;;;4.23;;
5847;SDS011;8756;49.29324300;8.70599800;2022-10-16T02:44:56;10.70;;;4.03;;
5847;SDS011;8756;49.29324300;8.70599800;2022-10-16T02:47:22;12.40;;;4.73;;
5847;SDS011;8756;49.29324300;8.70599800;2022-10-16T02:49:48;11.13;;;4.67;;
5847;SDS011;8756;49.29324300;8.70599800;2022-10-16T02:52:14;9.90;;;3.93;;
5847;SDS011;8756;49.29324300;8.70599800;2022-10-16T02:54:39;12.00;;;4.83;;
5847;SDS011;8756;49.29324300;8.70599800;2022-10-16T02:57:05;12.33;;;4.93;;
5847;SDS011;8756;49.29324300;8.70599800;2022-10-16T02:59:31;10.60;;;4.80;;
5847;SDS011;8756;49.29324300;8.70599800;2022-10-16T03:01:56;11.90;;;4.53;;
5847;SDS011;8756;49.29324300;8.70599800;2022-10-16T03:04:22;13.33;;;4.67;;
5847;SDS011;8756;49.29324300;8.70599800;2022-10-16T03:06:48;12.10;;;4.77;;
5847;SDS011;8756;49.29324300;8.70599800;2022-10-16T03:09:14;11.37;;;4.00;;
5847;SDS011;8756;49.29324300;8.70599800;2022-10-16T03:11:40;10.40;;;4.17;;
5847;SDS011;8756;49.29324300;8.70599800;2022-10-16T03:14:05;14.33;;;3.60;;
5847;SDS011;8756;49.29324300;8.70599800;2022-10-16T03:16:31;11.43;;;3.70;;
5847;SDS011;8756;49.29324300;8.70599800;2022-10-16T03:18:57;11.57;;;3.70;;
5847;SDS011;8756;49.29324300;8.70599800;2022-10-16T03:21:23;11.23;;;4.07;;
5847;SDS011;8756;49.29324300;8.70599800;2022-10-16T03:23:48;13.03;;;4.17;;
5847;SDS011;8756;49.29324300;8.70599800;2022-10-16T03:26:14;15.37;;;4.13;;
5847;SDS011;8756;49.29324300;8.70599800;2022-10-16T03:28:40;10.90;;;4.00;;
5847;SDS011;8756;49.29324300;8.70599800;2022-10-16T03:31:05;10.47;;;4.27;;
5847;SDS011;8756;49.29324300;8.70599800;2022-10-16T03:33:31;10.70;;;4.20;;
5847;SDS011;8756;49.29324300;8.70599800;2022-10-16T03:35:57;10.97;;;4.10;;
5847;SDS011;8756;49.29324300;8.70599800;2022-10-16T03:38:23;10.63;;;4.40;;
5847;SDS011;8756;49.29324300;8.70599800;2022-10-16T03:40:48;9.50;;;3.90;;
5847;SDS011;8756;49.29324300;8.70599800;2022-10-16T03:43:14;9.10;;;3.43;;
5847;SDS011;8756;49.29324300;8.70599800;2022-10-16T03:45:40;11.40;;;4.63;;
5847;SDS011;8756;49.29324300;8.70599800;2022-10-16T03:48:06;11.73;;;3.97;;
5847;SDS011;8756;49.29324300;8.70599800;2022-10-16T03:50:31;12.70;;;4.40;;
5847;SDS011;8756;49.29324300;8.70599800;2022-10-16T03:52:57;10.30;;;3.80;;
5847;SDS011;8756;49.29324300;8.70599800;2022-10-16T03:55:23;10.93;;;3.63;;
5847;SDS011;8756;49.29324300;8.70599800;2022-10-16T03:57:48;10.10;;;3.73;;
5847;SDS011;8756;49.29324300;8.70599800;2022-10-16T04:00:14;10.50;;;3.80;;
5847;SDS011;8756;49.29324300;8.70599800;2022-10-16T04:02:40;11.90;;;4.13;;
5847;SDS011;8756;49.29324300;8.70599800;2022-10-16T04:05:06;9.97;;;3.90;;
5847;SDS011;8756;49.29324300;8.70599800;2022-10-16T04:07:32;9.90;;;3.90;;
5847;SDS011;8756;49.29324300;8.70599800;2022-10-16T04:09:58;12.07;;;3.97;;
5847;SDS011;8756;49.29324300;8.70599800;2022-10-16T04:12:24;10.77;;;4.30;;
5847;SDS011;8756;49.29324300;8.70599800;2022-10-16T04:14:53;9.20;;;3.53;;
5847;SDS011;8756;49.29324300;8.70599800;2022-10-16T04:17:18;9.90;;;4.00;;
5847;SDS011;8756;49.29324300;8.70599800;2022-10-16T04:19:44;11.60;;;4.30;;
5847;SDS011;8756;49.29324300;8.70599800;2022-10-16T04:22:10;18.73;;;4.70;;
5847;SDS011;8756;49.29324300;8.70599800;2022-10-16T04:24:36;11.33;;;4.17;;
5847;SDS011;8756;49.29324300;8.70599800;2022-10-16T04:27:01;16.00;;;5.60;;
5847;SDS011;8756;49.29324300;8.70599800;2022-10-16T04:29:27;12.80;;;5.60;;
5847;SDS011;8756;49.29324300;8.70599800;2022-10-16T04:31:53;14.67;;;5.33;;
5847;SDS011;8756;49.29324300;8.70599800;2022-10-16T04:34:19;25.43;;;6.03;;
5847;SDS011;8756;49.29324300;8.70599800;2022-10-16T04:36:48;17.27;;;6.20;;
5847;SDS011;8756;49.29324300;8.70599800;2022-10-16T04:39:14;12.67;;;5.77;;
5847;SDS011;8756;49.29324300;8.70599800;2022-10-16T04:41:41;13.50;;;5.53;;
5847;SDS011;8756;49.29324300;8.70599800;2022-10-16T04:44:07;10.20;;;4.33;;
5847;SDS011;8756;49.29324300;8.70599800;2022-10-16T04:46:33;13.23;;;6.30;;
5847;SDS011;8756;49.29324300;8.70599800;2022-10-16T04:48:59;12.20;;;5.37;;
5847;SDS011;8756;49.29324300;8.70599800;2022-10-16T04:51:24;9.67;;;4.63;;
5847;SDS011;8756;49.29324300;8.70599800;2022-10-16T04:53:51;11.63;;;4.00;;
5847;SDS011;8756;49.29324300;8.70599800;2022-10-16T04:56:17;13.53;;;4.00;;
5847;SDS011;8756;49.29324300;8.70599800;2022-10-16T04:58:42;11.33;;;3.93;;
5847;SDS011;8756;49.29324300;8.70599800;2022-10-16T05:01:08;9.20;;;3.80;;
5847;SDS011;8756;49.29324300;8.70599800;2022-10-16T05:03:34;13.47;;;5.50;;
5847;SDS011;8756;49.29324300;8.70599800;2022-10-16T05:06:00;10.53;;;4.63;;
5847;SDS011;8756;49.29324300;8.70599800;2022-10-16T05:08:25;15.57;;;4.97;;
5847;SDS011;8756;49.29324300;8.70599800;2022-10-16T05:10:51;9.30;;;3.93;;
5847;SDS011;8756;49.29324300;8.70599800;2022-10-16T05:13:17;10.83;;;4.70;;
5847;SDS011;8756;49.29324300;8.70599800;2022-10-16T05:15:46;12.53;;;4.50;;
5847;SDS011;8756;49.29324300;8.70599800;2022-10-16T05:18:13;9.77;;;4.23;;
5847;SDS011;8756;49.29324300;8.70599800;2022-10-16T05:20:39;9.80;;;4.33;;
5847;SDS011;8756;49.29324300;8.70599800;2022-10-16T05:23:05;11.20;;;4.70;;
5847;SDS011;8756;49.29324300;8.70599800;2022-10-16T05:25:37;12.10;;;4.30;;
5847;SDS011;8756;49.29324300;8.70599800;2022-10-16T05:28:03;9.93;;;4.73;;
5847;SDS011;8756;49.29324300;8.70599800;2022-10-16T05:30:29;11.07;;;5.17;;
5847;SDS011;8756;49.29324300;8.70599800;2022-10-16T05:32:54;10.80;;;4.90;;
5847;SDS011;8756;49.29324300;8.70599800;2022-10-16T05:35:20;10.70;;;4.50;;
5847;SDS011;8756;49.29324300;8.70599800;2022-10-16T05:37:46;11.43;;;4.70;;
5847;SDS011;8756;49.29324300;8.70599800;2022-10-16T05:40:13;14.23;;;4.50;;
5847;SDS011;8756;49.29324300;8.70599800;2022-10-16T05:42:39;11.43;;;5.37;;
5847;SDS011;8756;49.29324300;8.70599800;2022-10-16T05:45:06;11.63;;;4.90;;
5847;SDS011;8756;49.29324300;8.70599800;2022-10-16T05:47:34;10.80;;;5.10;;
5847;SDS011;8756;49.29324300;8.70599800;2022-10-16T05:50:00;11.03;;;4.70;;
5847;SDS011;8756;49.29324300;8.70599800;2022-10-16T05:52:26;10.10;;;5.07;;
5847;SDS011;8756;49.29324300;8.70599800;2022-10-16T05:54:52;10.97;;;5.40;;
5847;SDS011;8756;49.29324300;8.70599800;2022-10-16T05:57:18;11.10;;;4.80;;
5847;SDS011;8756;49.29324300;8.70599800;2022-10-16T05:59:44;10.73;;;5.50;;
5847;SDS011;8756;49.29324300;8.70599800;2022-10-16T06:02:11;16.60;;;5.73;;
5847;SDS011;8756;49.29324300;8.70599800;2022-10-16T06:04:38;11.17;;;5.00;;
5847;SDS011;8756;49.29324300;8.70599800;2022-10-16T06:07:04;11.53;;;5.20;;
5847;SDS011;8756;49.29324300;8.70599800;2022-10-16T06:09:30;11.20;;;5.30;;
5847;SDS011;8756;49.29324300;8.70599800;2022-10-16T06:11:56;11.17;;;5.80;;
5847;SDS011;8756;49.29324300;8.70599800;2022-10-16T06:14:21;12.13;;;5.97;;
5847;SDS011;8756;49.29324300;8.70599800;2022-10-16T06:16:47;11.03;;;5.00;;
5847;SDS011;8756;49.29324300;8.70599800;2022-10-16T06:19:13;12.20;;;4.80;;
5847;SDS011;8756;49.29324300;8.70599800;2022-10-16T06:21:40;15.03;;;5.77;;
5847;SDS011;8756;49.29324300;8.70599800;2022-10-16T06:24:06;11.33;;;5.07;;
5847;SDS011;8756;49.29324300;8.70599800;2022-10-16T06:26:32;11.60;;;5.07;;
5847;SDS011;8756;49.29324300;8.70599800;2022-10-16T06:28:58;15.53;;;6.83;;
5847;SDS011;8756;49.29324300;8.70599800;2022-10-16T06:31:25;14.87;;;6.70;;
5847;SDS011;8756;49.29324300;8.70599800;2022-10-16T06:33:56;15.13;;;5.87;;
5847;SDS011;8756;49.29324300;8.70599800;2022-10-16T06:36:23;13.53;;;5.10;;
5847;SDS011;8756;49.29324300;8.70599800;2022-10-16T06:38:50;12.10;;;5.43;;
5847;SDS011;8756;49.29324300;8.70599800;2022-10-16T06:41:17;16.77;;;5.90;;
5847;SDS011;8756;49.29324300;8.70599800;2022-10-16T06:43:45;14.03;;;6.03;;
5847;SDS011;8756;49.29324300;8.70599800;2022-10-16T06:46:13;15.03;;;5.87;;
5847;SDS011;8756;49.29324300;8.70599800;2022-10-16T06:48:42;12.13;;;4.90;;
5847;SDS011;8756;49.29324300;8.70599800;2022-10-16T06:53:36;10.53;;;4.70;;
5847;SDS011;8756;49.29324300;8.70599800;2022-10-16T06:56:09;10.40;;;5.00;;
5847;SDS011;8756;49.29324300;8.70599800;2022-10-16T06:58:39;13.70;;;5.70;;
5847;SDS011;8756;49.29324300;8.70599800;2022-10-16T07:01:05;10.17;;;5.03;;
5847;SDS011;8756;49.29324300;8.70599800;2022-10-16T07:03:31;14.13;;;5.30;;
5847;SDS011;8756;49.29324300;8.70599800;2022-10-16T07:06:00;11.90;;;4.80;;
5847;SDS011;8756;49.29324300;8.70599800;2022-10-16T07:08:31;10.57;;;4.97;;
5847;SDS011;8756;49.29324300;8.70599800;2022-10-16T07:11:08;11.53;;;5.70;;
5847;SDS011;8756;49.29324300;8.70599800;2022-10-16T07:13:37;10.90;;;5.30;;
5847;SDS011;8756;49.29324300;8.70599800;2022-10-16T07:16:12;10.70;;;5.53;;
5847;SDS011;8756;49.29324300;8.70599800;2022-10-16T07:18:47;13.10;;;5.10;;
5847;SDS011;8756;49.29324300;8.70599800;2022-10-16T07:21:16;10.63;;;5.33;;
5847;SDS011;8756;49.29324300;8.70599800;2022-10-16T07:23:45;10.67;;;5.70;;
5847;SDS011;8756;49.29324300;8.70599800;2022-10-16T07:26:26;10.97;;;5.60;;
5847;SDS011;8756;49.29324300;8.70599800;2022-10-16T07:28:56;10.97;;;5.50;;
5847;SDS011;8756;49.29324300;8.70599800;2022-10-16T07:31:22;11.13;;;5.10;;
5847;SDS011;8756;49.29324300;8.70599800;2022-10-16T07:33:49;11.90;;;5.20;;
5847;SDS011;8756;49.29324300;8.70599800;2022-10-16T07:36:19;14.97;;;5.33;;
5847;SDS011;8756;49.29324300;8.70599800;2022-10-16T07:38:47;10.80;;;5.00;;
5847;SDS011;8756;49.29324300;8.70599800;2022-10-16T07:41:15;18.00;;;5.40;;
5847;SDS011;8756;49.29324300;8.70599800;2022-10-16T07:43:47;12.77;;;5.80;;
5847;SDS011;8756;49.29324300;8.70599800;2022-10-16T07:46:18;9.77;;;4.60;;
5847;SDS011;8756;49.29324300;8.70599800;2022-10-16T07:48:46;12.10;;;5.17;;
5847;SDS011;8756;49.29324300;8.70599800;2022-10-16T07:51:17;14.47;;;4.83;;
5847;SDS011;8756;49.29324300;8.70599800;2022-10-16T07:53:45;11.40;;;4.07;;
5847;SDS011;8756;49.29324300;8.70599800;2022-10-16T07:56:11;9.47;;;4.40;;
5847;SDS011;8756;49.29324300;8.70599800;2022-10-16T07:58:37;10.63;;;4.37;;
5847;SDS011;8756;49.29324300;8.70599800;2022-10-16T08:01:04;9.63;;;4.77;;
5847;SDS011;8756;49.29324300;8.70599800;2022-10-16T08:03:32;9.90;;;4.20;;
5847;SDS011;8756;49.29324300;8.70599800;2022-10-16T08:05:58;10.47;;;4.50;;
5847;SDS011;8756;49.29324300;8.70599800;2022-10-16T08:08:26;11.33;;;3.80;;
5847;SDS011;8756;49.29324300;8.70599800;2022-10-16T08:10:52;9.67;;;3.90;;
5847;SDS011;8756;49.29324300;8.70599800;2022-10-16T08:13:18;9.40;;;4.20;;
5847;SDS011;8756;49.29324300;8.70599800;2022-10-16T08:15:44;9.80;;;4.33;;
5847;SDS011;8756;49.29324300;8.70599800;2022-10-16T08:18:11;10.47;;;3.80;;
5847;SDS011;8756;49.29324300;8.70599800;2022-10-16T08:20:39;8.93;;;4.10;;
5847;SDS011;8756;49.29324300;8.70599800;2022-10-16T08:23:05;9.97;;;4.33;;
5847;SDS011;8756;49.29324300;8.70599800;2022-10-16T08:25:35;11.47;;;3.63;;
5847;SDS011;8756;49.29324300;8.70599800;2022-10-16T08:28:05;9.70;;;3.57;;
5847;SDS011;8756;49.29324300;8.70599800;2022-10-16T08:30:34;9.50;;;3.70;;
5847;SDS011;8756;49.29324300;8.70599800;2022-10-16T08:33:00;10.83;;;4.30;;
5847;SDS011;8756;49.29324300;8.70599800;2022-10-16T08:35:27;10.50;;;4.10;;
5847;SDS011;8756;49.29324300;8.70599800;2022-10-16T08:37:53;15.07;;;3.97;;
5847;SDS011;8756;49.29324300;8.70599800;2022-10-16T08:40:29;9.93;;;3.90;;
5847;SDS011;8756;49.29324300;8.70599800;2022-10-16T08:45:43;11.00;;;4.43;;
5847;SDS011;8756;49.29324300;8.70599800;2022-10-16T08:48:42;10.77;;;4.60;;
5847;SDS011;8756;49.29324300;8.70599800;2022-10-16T08:51:32;9.40;;;4.20;;
5847;SDS011;8756;49.29324300;8.70599800;2022-10-16T08:54:02;11.43;;;3.87;;
5847;SDS011;8756;49.29324300;8.70599800;2022-10-16T08:56:30;11.00;;;4.73;;
5847;SDS011;8756;49.29324300;8.70599800;2022-10-16T08:58:58;10.50;;;3.67;;
5847;SDS011;8756;49.29324300;8.70599800;2022-10-16T09:01:25;11.60;;;4.20;;
5847;SDS011;8756;49.29324300;8.70599800;2022-10-16T09:13:07;10.97;;;4.50;;
5847;SDS011;8756;49.29324300;8.70599800;2022-10-16T09:16:01;10.33;;;4.30;;
5847;SDS011;8756;49.29324300;8.70599800;2022-10-16T09:18:50;14.50;;;5.10;;
5847;SDS011;8756;49.29324300;8.70599800;2022-10-16T09:21:30;15.77;;;5.50;;
5847;SDS011;8756;49.29324300;8.70599800;2022-10-16T09:24:23;12.00;;;4.80;;
5847;SDS011;8756;49.29324300;8.70599800;2022-10-16T09:26:50;12.97;;;4.80;;
5847;SDS011;8756;49.29324300;8.70599800;2022-10-16T09:29:17;19.83;;;5.00;;
5847;SDS011;8756;49.29324300;8.70599800;2022-10-16T09:31:45;10.47;;;3.90;;
5847;SDS011;8756;49.29324300;8.70599800;2022-10-16T09:34:24;10.40;;;4.37;;
5847;SDS011;8756;49.29324300;8.70599800;2022-10-16T09:36:57;11.80;;;4.00;;
5847;SDS011;8756;49.29324300;8.70599800;2022-10-16T09:39:29;9.97;;;4.33;;
5847;SDS011;8756;49.29324300;8.70599800;2022-10-16T09:41:57;10.87;;;4.10;;
5847;SDS011;8756;49.29324300;8.70599800;2022-10-16T09:44:31;14.03;;;3.87;;
5847;SDS011;8756;49.29324300;8.70599800;2022-10-16T09:47:13;9.33;;;3.60;;
5847;SDS011;8756;49.29324300;8.70599800;2022-10-16T09:49:59;9.73;;;3.50;;
5847;SDS011;8756;49.29324300;8.70599800;2022-10-16T09:52:38;9.20;;;3.80;;
5847;SDS011;8756;49.29324300;8.70599800;2022-10-16T09:55:14;11.53;;;3.47;;
5847;SDS011;8756;49.29324300;8.70599800;2022-10-16T09:57:52;10.10;;;3.73;;
5847;SDS011;8756;49.29324300;8.70599800;2022-10-16T10:00:19;9.80;;;3.13;;
5847;SDS011;8756;49.29324300;8.70599800;2022-10-16T10:02:47;9.40;;;3.00;;
5847;SDS011;8756;49.29324300;8.70599800;2022-10-16T10:05:17;9.80;;;3.30;;
5847;SDS011;8756;49.29324300;8.70599800;2022-10-16T10:07:52;10.20;;;3.37;;
5847;SDS011;8756;49.29324300;8.70599800;2022-10-16T10:10:32;12.47;;;4.43;;
5847;SDS011;8756;49.29324300;8.70599800;2022-10-16T10:13:18;15.80;;;4.33;;
5847;SDS011;8756;49.29324300;8.70599800;2022-10-16T10:15:46;10.33;;;3.23;;
5847;SDS011;8756;49.29324300;8.70599800;2022-10-16T10:18:16;11.40;;;3.70;;
5847;SDS011;8756;49.29324300;8.70599800;2022-10-16T10:20:46;11.13;;;3.40;;
5847;SDS011;8756;49.29324300;8.70599800;2022-10-16T10:23:25;8.80;;;3.00;;
5847;SDS011;8756;49.29324300;8.70599800;2022-10-16T10:28:29;12.23;;;3.10;;
5847;SDS011;8756;49.29324300;8.70599800;2022-10-16T10:31:12;10.47;;;3.00;;
5847;SDS011;8756;49.29324300;8.70599800;2022-10-16T10:37:14;12.00;;;3.40;;
5847;SDS011;8756;49.29324300;8.70599800;2022-10-16T10:39:52;9.70;;;3.00;;
5847;SDS011;8756;49.29324300;8.70599800;2022-10-16T10:50:58;9.43;;;2.80;;
5847;SDS011;8756;49.29324300;8.70599800;2022-10-16T10:53:44;11.53;;;3.33;;
5847;SDS011;8756;49.29324300;8.70599800;2022-10-16T10:56:34;11.93;;;3.53;;
5847;SDS011;8756;49.29324300;8.70599800;2022-10-16T11:02:26;9.80;;;3.03;;
5847;SDS011;8756;49.29324300;8.70599800;2022-10-16T11:07:57;10.00;;;3.10;;
5847;SDS011;8756;49.29324300;8.70599800;2022-10-16T11:10:30;13.00;;;3.50;;
5847;SDS011;8756;49.29324300;8.70599800;2022-10-16T11:13:24;9.73;;;3.13;;
5847;SDS011;8756;49.29324300;8.70599800;2022-10-16T11:16:20;10.50;;;3.40;;
5847;SDS011;8756;49.29324300;8.70599800;2022-10-16T11:19:04;9.70;;;2.90;;
5847;SDS011;8756;49.29324300;8.70599800;2022-10-16T11:21:54;10.67;;;3.70;;
5847;SDS011;8756;49.29324300;8.70599800;2022-10-16T11:27:38;9.80;;;3.20;;
5847;SDS011;8756;49.29324300;8.70599800;2022-10-16T11:30:20;9.87;;;3.07;;
5847;SDS011;8756;49.29324300;8.70599800;2022-10-16T11:36:00;10.73;;;3.00;;
5847;SDS011;8756;49.29324300;8.70599800;2022-10-16T11:39:11;9.87;;;3.23;;
5847;SDS011;8756;49.29324300;8.70599800;2022-10-16T11:41:59;9.90;;;2.77;;
5847;SDS011;8756;49.29324300;8.70599800;2022-10-16T11:44:38;9.40;;;2.77;;
5847;SDS011;8756;49.29324300;8.70599800;2022-10-16T11:55:37;11.40;;;3.50;;
5847;SDS011;8756;49.29324300;8.70599800;2022-10-16T11:58:07;11.87;;;3.27;;
5847;SDS011;8756;49.29324300;8.70599800;2022-10-16T12:01:01;11.23;;;3.43;;
5847;SDS011;8756;49.29324300;8.70599800;2022-10-16T12:03:35;10.80;;;3.13;;
5847;SDS011;8756;49.29324300;8.70599800;2022-10-16T12:06:22;10.90;;;3.23;;
5847;SDS011;8756;49.29324300;8.70599800;2022-10-16T12:09:29;11.90;;;3.23;;
5847;SDS011;8756;49.29324300;8.70599800;2022-10-16T12:11:58;10.47;;;3.50;;
5847;SDS011;8756;49.29324300;8.70599800;2022-10-16T12:14:39;12.10;;;3.23;;
5847;SDS011;8756;49.29324300;8.70599800;2022-10-16T12:19:56;11.20;;;3.57;;
5847;SDS011;8756;49.29324300;8.70599800;2022-10-16T12:22:27;11.73;;;3.27;;
5847;SDS011;8756;49.29324300;8.70599800;2022-10-16T12:24:55;10.53;;;3.23;;
5847;SDS011;8756;49.29324300;8.70599800;2022-10-16T12:27:27;10.80;;;3.40;;
5847;SDS011;8756;49.29324300;8.70599800;2022-10-16T12:29:57;11.27;;;3.20;;
5847;SDS011;8756;49.29324300;8.70599800;2022-10-16T12:32:35;11.40;;;3.20;;
5847;SDS011;8756;49.29324300;8.70599800;2022-10-16T12:35:04;9.90;;;3.23;;
5847;SDS011;8756;49.29324300;8.70599800;2022-10-16T12:37:41;9.93;;;3.23;;
5847;SDS011;8756;49.29324300;8.70599800;2022-10-16T12:40:16;10.80;;;3.30;;
5847;SDS011;8756;49.29324300;8.70599800;2022-10-16T12:42:54;9.67;;;2.90;;
5847;SDS011;8756;49.29324300;8.70599800;2022-10-16T12:45:30;10.90;;;3.50;;
5847;SDS011;8756;49.29324300;8.70599800;2022-10-16T12:47:59;13.50;;;3.20;;
5847;SDS011;8756;49.29324300;8.70599800;2022-10-16T12:50:37;9.87;;;3.10;;
5847;SDS011;8756;49.29324300;8.70599800;2022-10-16T12:53:21;10.60;;;3.20;;
5847;SDS011;8756;49.29324300;8.70599800;2022-10-16T13:01:34;13.87;;;4.00;;
5847;SDS011;8756;49.29324300;8.70599800;2022-10-16T13:07:28;10.67;;;3.07;;
5847;SDS011;8756;49.29324300;8.70599800;2022-10-16T13:21:22;14.10;;;3.67;;
5847;SDS011;8756;49.29324300;8.70599800;2022-10-16T13:33:32;11.67;;;3.83;;
5847;SDS011;8756;49.29324300;8.70599800;2022-10-16T13:36:02;10.30;;;3.80;;
5847;SDS011;8756;49.29324300;8.70599800;2022-10-16T13:38:33;10.30;;;2.97;;
5847;SDS011;8756;49.29324300;8.70599800;2022-10-16T13:41:02;11.83;;;3.67;;
5847;SDS011;8756;49.29324300;8.70599800;2022-10-16T13:43:43;10.77;;;3.53;;
5847;SDS011;8756;49.29324300;8.70599800;2022-10-16T13:46:17;13.13;;;3.40;;
5847;SDS011;8756;49.29324300;8.70599800;2022-10-16T13:49:01;14.43;;;3.57;;
5847;SDS011;8756;49.29324300;8.70599800;2022-10-16T13:51:30;10.30;;;3.53;;
5847;SDS011;8756;49.29324300;8.70599800;2022-10-16T13:53:57;11.10;;;3.37;;
5847;SDS011;8756;49.29324300;8.70599800;2022-10-16T13:56:27;13.53;;;3.50;;
5847;SDS011;8756;49.29324300;8.70599800;2022-10-16T13:59:02;13.63;;;3.77;;
5847;SDS011;8756;49.29324300;8.70599800;2022-10-16T14:02:52;10.17;;;3.03;;
5847;SDS011;8756;49.29324300;8.70599800;2022-10-16T14:04:59;14.47;;;4.10;;
5847;SDS011;8756;49.29324300;8.70599800;2022-10-16T14:07:28;16.53;;;3.23;;
5847;SDS011;8756;49.29324300;8.70599800;2022-10-16T14:09:59;18.00;;;3.60;;
5847;SDS011;8756;49.29324300;8.70599800;2022-10-16T14:12:29;13.90;;;3.30;;
5847;SDS011;8756;49.29324300;8.70599800;2022-10-16T14:14:55;13.80;;;3.70;;
5847;SDS011;8756;49.29324300;8.70599800;2022-10-16T14:17:30;9.63;;;2.97;;
5847;SDS011;8756;49.29324300;8.70599800;2022-10-16T14:19:59;12.37;;;3.67;;
5847;SDS011;8756;49.29324300;8.70599800;2022-10-16T14:24:57;10.70;;;3.10;;
5847;SDS011;8756;49.29324300;8.70599800;2022-10-16T14:30:10;12.07;;;4.60;;
5847;SDS011;8756;49.29324300;8.70599800;2022-10-16T14:33:05;11.53;;;4.03;;
5847;SDS011;8756;49.29324300;8.70599800;2022-10-16T14:35:59;11.23;;;3.63;;
5847;SDS011;8756;49.29324300;8.70599800;2022-10-16T14:38:31;17.00;;;4.03;;
5847;SDS011;8756;49.29324300;8.70599800;2022-10-16T14:40:59;13.90;;;4.07;;
5847;SDS011;8756;49.29324300;8.70599800;2022-10-16T14:43:33;14.20;;;4.53;;
5847;SDS011;8756;49.29324300;8.70599800;2022-10-16T14:46:06;11.40;;;3.27;;
5847;SDS011;8756;49.29324300;8.70599800;2022-10-16T14:48:42;14.80;;;3.77;;
5847;SDS011;8756;49.29324300;8.70599800;2022-10-16T14:51:21;11.57;;;3.70;;
5847;SDS011;8756;49.29324300;8.70599800;2022-10-16T14:53:47;10.07;;;3.43;;
5847;SDS011;8756;49.29324300;8.70599800;2022-10-16T14:56:15;13.33;;;4.23;;
5847;SDS011;8756;49.29324300;8.70599800;2022-10-16T14:58:45;11.00;;;4.03;;
5847;SDS011;8756;49.29324300;8.70599800;2022-10-16T15:01:11;11.23;;;4.00;;
5847;SDS011;8756;49.29324300;8.70599800;2022-10-16T15:03:37;12.10;;;4.73;;
5847;SDS011;8756;49.29324300;8.70599800;2022-10-16T15:06:03;13.47;;;3.90;;
5847;SDS011;8756;49.29324300;8.70599800;2022-10-16T15:08:36;11.17;;;3.67;;
5847;SDS011;8756;49.29324300;8.70599800;2022-10-16T15:11:01;10.70;;;3.60;;
5847;SDS011;8756;49.29324300;8.70599800;2022-10-16T15:13:27;11.70;;;3.47;;